sensor_id;sensor_type;location;lat;lon;timestamp;P1;durP1;ratioP1;P2;durP2;ratioP2
3121;SDS011;1571;52.524;14.104;2022-10-16T00:01:38;2.03;;;1.93;;
3121;SDS011;1571;52.524;14.104;2022-10-16T00:04:06;2.43;;;2.23;;
3121;SDS011;1571;52.524;14.104;2022-10-16T00:06:35;3.27;;;2.93;;
3121;SDS011;1571;52.524;14.104;2022-10-16T00:09:03;3.07;;;2.50;;
3121;SDS011;1571;52.524;14.104;2022-10-16T00:11:34;2.20;;;2.10;;
3121;SDS011;1571;52.524;14.104;2022-10-16T00:14:05;4.17;;;2.57;;
3121;SDS011;1571;52.524;14.104;2022-10-16T00:16:35;2.53;;;2.33;;
3121;SDS011;1571;52.524;14.104;2022-10-16T00:19:04;2.67;;;2.30;;
3121;SDS011;1571;52.524;14.104;2022-10-16T00:21:32;2.63;;;2.37;;
3121;SDS011;1571;52.524;14.104;2022-10-16T00:24:02;2.13;;;2.03;;
3121;SDS011;1571;52.524;14.104;2022-10-16T00:26:34;2.33;;;2.13;;
3121;SDS011;1571;52.524;14.104;2022-10-16T00:29:05;2.73;;;2.53;;
3121;SDS011;1571;52.524;14.104;2022-10-16T00:31:34;2.47;;;1.73;;
3121;SDS011;1571;52.524;14.104;2022-10-16T00:34:02;3.53;;;2.23;;
3121;SDS011;1571;52.524;14.104;2022-10-16T00:36:31;4.60;;;2.67;;
3121;SDS011;1571;52.524;14.104;2022-10-16T00:38:59;2.00;;;1.90;;
3121;SDS011;1571;52.524;14.104;2022-10-16T00:41:29;2.23;;;2.00;;
3121;SDS011;1571;52.524;14.104;2022-10-16T00:43:59;2.13;;;1.83;;
3121;SDS011;1571;52.524;14.104;2022-10-16T00:46:29;2.30;;;2.07;;
3121;SDS011;1571;52.524;14.104;2022-10-16T00:49:03;2.53;;;2.33;;
3121;SDS011;1571;52.524;14.104;2022-10-16T00:51:34;1.83;;;1.73;;
3121;SDS011;1571;52.524;14.104;2022-10-16T00:54:08;4.20;;;2.07;;
3121;SDS011;1571;52.524;14.104;2022-10-16T00:56:38;3.33;;;1.50;;
3121;SDS011;1571;52.524;14.104;2022-10-16T00:59:14;2.17;;;2.07;;
3121;SDS011;1571;52.524;14.104;2022-10-16T01:01:44;2.50;;;1.90;;
3121;SDS011;1571;52.524;14.104;2022-10-16T01:04:12;4.87;;;1.67;;
3121;SDS011;1571;52.524;14.104;2022-10-16T01:06:43;2.67;;;2.07;;
3121;SDS011;1571;52.524;14.104;2022-10-16T01:09:21;1.43;;;1.33;;
3121;SDS011;1571;52.524;14.104;2022-10-16T01:11:55;2.53;;;2.43;;
3121;SDS011;1571;52.524;14.104;2022-10-16T01:14:32;1.97;;;1.70;;
3121;SDS011;1571;52.524;14.104;2022-10-16T01:17:09;1.90;;;1.80;;
3121;SDS011;1571;52.524;14.104;2022-10-16T01:19:44;1.70;;;1.60;;
3121;SDS011;1571;52.524;14.104;2022-10-16T01:22:23;2.63;;;2.30;;
3121;SDS011;1571;52.524;14.104;2022-10-16T01:25:01;2.47;;;2.33;;
3121;SDS011;1571;52.524;14.104;2022-10-16T01:27:37;2.07;;;1.40;;
3121;SDS011;1571;52.524;14.104;2022-10-16T01:30:10;2.03;;;1.93;;
3121;SDS011;1571;52.524;14.104;2022-10-16T01:32:43;2.30;;;1.77;;
3121;SDS011;1571;52.524;14.104;2022-10-16T01:35:17;2.10;;;1.90;;
3121;SDS011;1571;52.524;14.104;2022-10-16T01:37:50;2.07;;;1.97;;
3121;SDS011;1571;52.524;14.104;2022-10-16T01:40:23;3.20;;;1.90;;
3121;SDS011;1571;52.524;14.104;2022-10-16T01:42:57;1.70;;;1.60;;
3121;SDS011;1571;52.524;14.104;2022-10-16T01:45:28;2.03;;;1.90;;
3121;SDS011;1571;52.524;14.104;2022-10-16T01:48:00;1.63;;;1.47;;
3121;SDS011;1571;52.524;14.104;2022-10-16T01:50:31;2.60;;;2.40;;
3121;SDS011;1571;52.524;14.104;2022-10-16T01:53:03;3.67;;;1.93;;
3121;SDS011;1571;52.524;14.104;2022-10-16T01:55:33;1.93;;;1.83;;
3121;SDS011;1571;52.524;14.104;2022-10-16T01:58:07;3.00;;;1.60;;
3121;SDS011;1571;52.524;14.104;2022-10-16T02:00:36;2.50;;;2.40;;
3121;SDS011;1571;52.524;14.104;2022-10-16T02:03:06;1.60;;;1.50;;
3121;SDS011;1571;52.524;14.104;2022-10-16T02:05:38;3.57;;;2.00;;
3121;SDS011;1571;52.524;14.104;2022-10-16T02:08:10;2.47;;;1.50;;
3121;SDS011;1571;52.524;14.104;2022-10-16T02:10:39;1.83;;;1.73;;
3121;SDS011;1571;52.524;14.104;2022-10-16T02:13:11;2.03;;;1.37;;
3121;SDS011;1571;52.524;14.104;2022-10-16T02:15:43;4.30;;;1.93;;
3121;SDS011;1571;52.524;14.104;2022-10-16T02:18:12;1.60;;;1.50;;
3121;SDS011;1571;52.524;14.104;2022-10-16T02:20:43;1.43;;;1.33;;
3121;SDS011;1571;52.524;14.104;2022-10-16T02:23:19;2.17;;;1.50;;
3121;SDS011;1571;52.524;14.104;2022-10-16T02:25:54;4.50;;;2.20;;
3121;SDS011;1571;52.524;14.104;2022-10-16T02:28:28;2.80;;;1.27;;
3121;SDS011;1571;52.524;14.104;2022-10-16T02:31:03;2.13;;;1.70;;
3121;SDS011;1571;52.524;14.104;2022-10-16T02:33:36;2.60;;;1.80;;
3121;SDS011;1571;52.524;14.104;2022-10-16T02:36:07;1.83;;;1.73;;
3121;SDS011;1571;52.524;14.104;2022-10-16T02:38:36;1.80;;;1.70;;
3121;SDS011;1571;52.524;14.104;2022-10-16T02:41:05;3.93;;;1.73;;
3121;SDS011;1571;52.524;14.104;2022-10-16T02:43:35;2.47;;;2.30;;
3121;SDS011;1571;52.524;14.104;2022-10-16T02:46:04;1.80;;;1.70;;
3121;SDS011;1571;52.524;14.104;2022-10-16T02:48:32;1.43;;;1.33;;
3121;SDS011;1571;52.524;14.104;2022-10-16T02:51:01;1.10;;;1.10;;
3121;SDS011;1571;52.524;14.104;2022-10-16T02:53:30;1.43;;;1.30;;
3121;SDS011;1571;52.524;14.104;2022-10-16T02:55:58;3.53;;;1.37;;
3121;SDS011;1571;52.524;14.104;2022-10-16T02:58:26;1.70;;;1.60;;
3121;SDS011;1571;52.524;14.104;2022-10-16T03:00:56;2.77;;;2.57;;
3121;SDS011;1571;52.524;14.104;2022-10-16T03:03:24;1.40;;;1.30;;
3121;SDS011;1571;52.524;14.104;2022-10-16T03:05:52;1.80;;;1.70;;
3121;SDS011;1571;52.524;14.104;2022-10-16T03:08:20;1.50;;;1.40;;
3121;SDS011;1571;52.524;14.104;2022-10-16T03:10:50;1.63;;;1.27;;
3121;SDS011;1571;52.524;14.104;2022-10-16T03:13:19;5.10;;;1.77;;
3121;SDS011;1571;52.524;14.104;2022-10-16T03:15:48;1.97;;;1.47;;
3121;SDS011;1571;52.524;14.104;2022-10-16T03:18:18;9.60;;;1.73;;
3121;SDS011;1571;52.524;14.104;2022-10-16T03:20:46;2.07;;;1.97;;
3121;SDS011;1571;52.524;14.104;2022-10-16T03:23:15;1.70;;;1.60;;
3121;SDS011;1571;52.524;14.104;2022-10-16T03:25:43;1.37;;;1.27;;
3121;SDS011;1571;52.524;14.104;2022-10-16T03:28:14;1.70;;;1.30;;
3121;SDS011;1571;52.524;14.104;2022-10-16T03:30:42;2.20;;;1.90;;
3121;SDS011;1571;52.524;14.104;2022-10-16T03:33:11;1.60;;;1.50;;
3121;SDS011;1571;52.524;14.104;2022-10-16T03:35:41;2.70;;;1.10;;
3121;SDS011;1571;52.524;14.104;2022-10-16T03:38:09;2.43;;;1.70;;
3121;SDS011;1571;52.524;14.104;2022-10-16T03:40:37;2.37;;;1.60;;
3121;SDS011;1571;52.524;14.104;2022-10-16T03:43:05;1.53;;;1.33;;
3121;SDS011;1571;52.524;14.104;2022-10-16T03:45:33;1.77;;;1.67;;
3121;SDS011;1571;52.524;14.104;2022-10-16T03:48:01;2.30;;;1.50;;
3121;SDS011;1571;52.524;14.104;2022-10-16T03:50:30;1.60;;;1.50;;
3121;SDS011;1571;52.524;14.104;2022-10-16T03:52:59;1.47;;;1.37;;
3121;SDS011;1571;52.524;14.104;2022-10-16T03:55:27;2.73;;;1.70;;
3121;SDS011;1571;52.524;14.104;2022-10-16T03:57:56;1.87;;;1.20;;
3121;SDS011;1571;52.524;14.104;2022-10-16T04:00:24;1.33;;;1.23;;
3121;SDS011;1571;52.524;14.104;2022-10-16T04:02:52;1.90;;;1.17;;
3121;SDS011;1571;52.524;14.104;2022-10-16T04:05:20;1.63;;;1.43;;
3121;SDS011;1571;52.524;14.104;2022-10-16T04:07:48;2.93;;;1.27;;
3121;SDS011;1571;52.524;14.104;2022-10-16T04:10:18;1.63;;;1.10;;
3121;SDS011;1571;52.524;14.104;2022-10-16T04:12:46;1.40;;;1.30;;
3121;SDS011;1571;52.524;14.104;2022-10-16T04:15:15;5.73;;;2.43;;
3121;SDS011;1571;52.524;14.104;2022-10-16T04:17:43;2.07;;;1.60;;
3121;SDS011;1571;52.524;14.104;2022-10-16T04:20:11;1.67;;;1.17;;
3121;SDS011;1571;52.524;14.104;2022-10-16T04:22:39;1.50;;;1.40;;
3121;SDS011;1571;52.524;14.104;2022-10-16T04:25:07;1.50;;;1.00;;
3121;SDS011;1571;52.524;14.104;2022-10-16T04:27:38;1.90;;;1.13;;
3121;SDS011;1571;52.524;14.104;2022-10-16T04:30:12;1.97;;;1.03;;
3121;SDS011;1571;52.524;14.104;2022-10-16T04:32:40;1.40;;;1.30;;
3121;SDS011;1571;52.524;14.104;2022-10-16T04:35:09;6.20;;;1.93;;
3121;SDS011;1571;52.524;14.104;2022-10-16T04:37:37;1.30;;;1.20;;
3121;SDS011;1571;52.524;14.104;2022-10-16T04:40:05;2.00;;;1.90;;
3121;SDS011;1571;52.524;14.104;2022-10-16T04:42:34;1.60;;;1.50;;
3121;SDS011;1571;52.524;14.104;2022-10-16T04:45:04;2.50;;;1.20;;
3121;SDS011;1571;52.524;14.104;2022-10-16T04:47:39;0.93;;;0.90;;
3121;SDS011;1571;52.524;14.104;2022-10-16T04:50:07;3.57;;;1.07;;
3121;SDS011;1571;52.524;14.104;2022-10-16T04:52:36;3.43;;;1.87;;
3121;SDS011;1571;52.524;14.104;2022-10-16T04:55:05;1.00;;;1.00;;
3121;SDS011;1571;52.524;14.104;2022-10-16T04:57:33;2.43;;;1.20;;
3121;SDS011;1571;52.524;14.104;2022-10-16T05:00:02;2.40;;;1.00;;
3121;SDS011;1571;52.524;14.104;2022-10-16T05:02:33;1.27;;;1.17;;
3121;SDS011;1571;52.524;14.104;2022-10-16T05:05:01;2.07;;;1.20;;
3121;SDS011;1571;52.524;14.104;2022-10-16T05:07:30;1.17;;;1.17;;
3121;SDS011;1571;52.524;14.104;2022-10-16T05:09:58;1.60;;;1.03;;
3121;SDS011;1571;52.524;14.104;2022-10-16T05:12:26;2.40;;;1.40;;
3121;SDS011;1571;52.524;14.104;2022-10-16T05:14:54;1.60;;;1.20;;
3121;SDS011;1571;52.524;14.104;2022-10-16T05:17:27;2.90;;;1.17;;
3121;SDS011;1571;52.524;14.104;2022-10-16T05:19:55;1.30;;;1.20;;
3121;SDS011;1571;52.524;14.104;2022-10-16T05:22:23;2.20;;;1.20;;
3121;SDS011;1571;52.524;14.104;2022-10-16T05:24:52;1.73;;;1.63;;
3121;SDS011;1571;52.524;14.104;2022-10-16T05:27:20;1.37;;;1.23;;
3121;SDS011;1571;52.524;14.104;2022-10-16T05:29:48;0.90;;;0.90;;
3121;SDS011;1571;52.524;14.104;2022-10-16T05:32:17;1.43;;;1.20;;
3121;SDS011;1571;52.524;14.104;2022-10-16T05:34:47;1.87;;;1.33;;
3121;SDS011;1571;52.524;14.104;2022-10-16T05:37:15;3.20;;;1.20;;
3121;SDS011;1571;52.524;14.104;2022-10-16T05:39:43;1.47;;;1.33;;
3121;SDS011;1571;52.524;14.104;2022-10-16T05:42:11;1.13;;;1.13;;
3121;SDS011;1571;52.524;14.104;2022-10-16T05:44:40;1.30;;;1.20;;
3121;SDS011;1571;52.524;14.104;2022-10-16T05:47:08;4.90;;;1.37;;
3121;SDS011;1571;52.524;14.104;2022-10-16T05:49:37;1.27;;;1.23;;
3121;SDS011;1571;52.524;14.104;2022-10-16T05:52:08;1.70;;;1.37;;
3121;SDS011;1571;52.524;14.104;2022-10-16T05:54:37;1.60;;;1.10;;
3121;SDS011;1571;52.524;14.104;2022-10-16T05:57:05;1.87;;;1.77;;
3121;SDS011;1571;52.524;14.104;2022-10-16T05:59:33;2.80;;;1.40;;
3121;SDS011;1571;52.524;14.104;2022-10-16T06:02:01;1.27;;;1.17;;
3121;SDS011;1571;52.524;14.104;2022-10-16T06:04:29;2.80;;;1.20;;
3121;SDS011;1571;52.524;14.104;2022-10-16T06:06:58;1.20;;;1.10;;
3121;SDS011;1571;52.524;14.104;2022-10-16T06:09:29;1.80;;;1.70;;
3121;SDS011;1571;52.524;14.104;2022-10-16T06:11:57;1.43;;;1.33;;
3121;SDS011;1571;52.524;14.104;2022-10-16T06:14:25;1.10;;;1.00;;
3121;SDS011;1571;52.524;14.104;2022-10-16T06:16:54;1.47;;;1.37;;
3121;SDS011;1571;52.524;14.104;2022-10-16T06:19:22;1.40;;;1.30;;
3121;SDS011;1571;52.524;14.104;2022-10-16T06:21:51;1.47;;;1.00;;
3121;SDS011;1571;52.524;14.104;2022-10-16T06:24:19;1.20;;;1.10;;
3121;SDS011;1571;52.524;14.104;2022-10-16T06:26:48;3.03;;;1.43;;
3121;SDS011;1571;52.524;14.104;2022-10-16T06:29:16;1.50;;;1.40;;
3121;SDS011;1571;52.524;14.104;2022-10-16T06:31:45;1.00;;;1.00;;
3121;SDS011;1571;52.524;14.104;2022-10-16T06:34:13;1.40;;;1.30;;
3121;SDS011;1571;52.524;14.104;2022-10-16T06:36:41;1.30;;;1.20;;
3121;SDS011;1571;52.524;14.104;2022-10-16T06:39:10;2.03;;;1.30;;
3121;SDS011;1571;52.524;14.104;2022-10-16T06:41:38;2.77;;;1.13;;
3121;SDS011;1571;52.524;14.104;2022-10-16T06:44:17;1.37;;;1.30;;
3121;SDS011;1571;52.524;14.104;2022-10-16T06:46:45;1.30;;;1.20;;
3121;SDS011;1571;52.524;14.104;2022-10-16T06:49:13;3.03;;;1.40;;
3121;SDS011;1571;52.524;14.104;2022-10-16T06:51:47;1.30;;;1.20;;
3121;SDS011;1571;52.524;14.104;2022-10-16T06:54:16;1.50;;;1.10;;
3121;SDS011;1571;52.524;14.104;2022-10-16T06:56:44;1.13;;;1.03;;
3121;SDS011;1571;52.524;14.104;2022-10-16T06:59:12;1.60;;;1.23;;
3121;SDS011;1571;52.524;14.104;2022-10-16T07:01:42;1.17;;;1.07;;
3121;SDS011;1571;52.524;14.104;2022-10-16T07:04:10;2.03;;;1.20;;
3121;SDS011;1571;52.524;14.104;2022-10-16T07:06:38;1.70;;;1.43;;
3121;SDS011;1571;52.524;14.104;2022-10-16T07:09:09;1.33;;;1.23;;
3121;SDS011;1571;52.524;14.104;2022-10-16T07:11:39;1.27;;;1.17;;
3121;SDS011;1571;52.524;14.104;2022-10-16T07:14:12;1.50;;;1.07;;
3121;SDS011;1571;52.524;14.104;2022-10-16T07:16:44;1.80;;;1.20;;
3121;SDS011;1571;52.524;14.104;2022-10-16T07:19:14;1.87;;;1.20;;
3121;SDS011;1571;52.524;14.104;2022-10-16T07:21:44;1.43;;;1.23;;
3121;SDS011;1571;52.524;14.104;2022-10-16T07:24:13;2.20;;;1.10;;
3121;SDS011;1571;52.524;14.104;2022-10-16T07:26:44;2.80;;;1.20;;
3121;SDS011;1571;52.524;14.104;2022-10-16T07:29:13;1.70;;;1.60;;
3121;SDS011;1571;52.524;14.104;2022-10-16T07:31:44;1.67;;;1.30;;
3121;SDS011;1571;52.524;14.104;2022-10-16T07:34:13;1.00;;;0.90;;
3121;SDS011;1571;52.524;14.104;2022-10-16T07:36:43;1.13;;;1.03;;
3121;SDS011;1571;52.524;14.104;2022-10-16T07:39:11;3.60;;;1.03;;
3121;SDS011;1571;52.524;14.104;2022-10-16T07:41:39;1.57;;;1.10;;
3121;SDS011;1571;52.524;14.104;2022-10-16T07:44:08;1.83;;;1.07;;
3121;SDS011;1571;52.524;14.104;2022-10-16T07:46:36;1.20;;;1.20;;
3121;SDS011;1571;52.524;14.104;2022-10-16T07:49:05;1.77;;;0.83;;
3121;SDS011;1571;52.524;14.104;2022-10-16T07:51:33;1.47;;;1.10;;
3121;SDS011;1571;52.524;14.104;2022-10-16T07:54:02;2.10;;;1.00;;
3121;SDS011;1571;52.524;14.104;2022-10-16T07:56:30;1.00;;;0.90;;
3121;SDS011;1571;52.524;14.104;2022-10-16T07:58:59;0.70;;;0.70;;
3121;SDS011;1571;52.524;14.104;2022-10-16T08:01:27;1.07;;;0.97;;
3121;SDS011;1571;52.524;14.104;2022-10-16T08:03:55;1.17;;;1.07;;
3121;SDS011;1571;52.524;14.104;2022-10-16T08:06:25;1.00;;;1.00;;
3121;SDS011;1571;52.524;14.104;2022-10-16T08:08:54;1.90;;;0.87;;
3121;SDS011;1571;52.524;14.104;2022-10-16T08:11:23;1.57;;;1.07;;
3121;SDS011;1571;52.524;14.104;2022-10-16T08:13:51;4.43;;;0.87;;
3121;SDS011;1571;52.524;14.104;2022-10-16T08:16:19;1.43;;;1.00;;
3121;SDS011;1571;52.524;14.104;2022-10-16T08:18:49;1.13;;;0.80;;
3121;SDS011;1571;52.524;14.104;2022-10-16T08:21:19;1.20;;;0.83;;
3121;SDS011;1571;52.524;14.104;2022-10-16T08:23:50;1.37;;;0.83;;
3121;SDS011;1571;52.524;14.104;2022-10-16T08:26:24;0.60;;;0.60;;
3121;SDS011;1571;52.524;14.104;2022-10-16T08:28:54;0.80;;;0.70;;
3121;SDS011;1571;52.524;14.104;2022-10-16T08:31:23;4.00;;;0.93;;
3121;SDS011;1571;52.524;14.104;2022-10-16T08:33:53;1.03;;;0.70;;
3121;SDS011;1571;52.524;14.104;2022-10-16T08:36:21;0.80;;;0.80;;
3121;SDS011;1571;52.524;14.104;2022-10-16T08:38:51;1.57;;;0.80;;
3121;SDS011;1571;52.524;14.104;2022-10-16T08:41:23;2.20;;;0.90;;
3121;SDS011;1571;52.524;14.104;2022-10-16T08:44:09;1.10;;;0.80;;
3121;SDS011;1571;52.524;14.104;2022-10-16T08:47:00;0.70;;;0.70;;
3121;SDS011;1571;52.524;14.104;2022-10-16T08:49:33;0.80;;;0.80;;
3121;SDS011;1571;52.524;14.104;2022-10-16T08:52:01;1.00;;;0.90;;
3121;SDS011;1571;52.524;14.104;2022-10-16T08:54:31;0.80;;;0.80;;
3121;SDS011;1571;52.524;14.104;2022-10-16T08:57:08;0.60;;;0.60;;
3121;SDS011;1571;52.524;14.104;2022-10-16T08:59:39;0.90;;;0.67;;
3121;SDS011;1571;52.524;14.104;2022-10-16T09:02:14;0.70;;;0.60;;
3121;SDS011;1571;52.524;14.104;2022-10-16T09:04:58;0.70;;;0.60;;
3121;SDS011;1571;52.524;14.104;2022-10-16T09:07:35;2.07;;;0.80;;
3121;SDS011;1571;52.524;14.104;2022-10-16T09:10:14;3.70;;;0.70;;
3121;SDS011;1571;52.524;14.104;2022-10-16T09:12:54;1.43;;;0.70;;
3121;SDS011;1571;52.524;14.104;2022-10-16T09:15:29;1.73;;;0.80;;
3121;SDS011;1571;52.524;14.104;2022-10-16T09:18:04;0.63;;;0.60;;
3121;SDS011;1571;52.524;14.104;2022-10-16T09:20:42;0.87;;;0.60;;
3121;SDS011;1571;52.524;14.104;2022-10-16T09:23:17;1.83;;;0.70;;
3121;SDS011;1571;52.524;14.104;2022-10-16T09:25:48;2.60;;;0.80;;
3121;SDS011;1571;52.524;14.104;2022-10-16T09:28:18;13.40;;;1.30;;
3121;SDS011;1571;52.524;14.104;2022-10-16T09:30:47;1.00;;;0.60;;
3121;SDS011;1571;52.524;14.104;2022-10-16T09:33:17;1.40;;;0.70;;
3121;SDS011;1571;52.524;14.104;2022-10-16T09:35:48;0.80;;;0.80;;
3121;SDS011;1571;52.524;14.104;2022-10-16T09:38:22;0.90;;;0.80;;
3121;SDS011;1571;52.524;14.104;2022-10-16T09:40:53;0.70;;;0.60;;
3121;SDS011;1571;52.524;14.104;2022-10-16T09:43:30;1.00;;;0.80;;
3121;SDS011;1571;52.524;14.104;2022-10-16T09:46:03;1.20;;;0.83;;
3121;SDS011;1571;52.524;14.104;2022-10-16T09:48:35;1.43;;;0.70;;
3121;SDS011;1571;52.524;14.104;2022-10-16T09:51:06;0.70;;;0.67;;
3121;SDS011;1571;52.524;14.104;2022-10-16T09:53:44;1.43;;;0.70;;
3121;SDS011;1571;52.524;14.104;2022-10-16T09:56:22;1.23;;;0.73;;
3121;SDS011;1571;52.524;14.104;2022-10-16T09:58:52;1.57;;;1.00;;
3121;SDS011;1571;52.524;14.104;2022-10-16T10:01:22;3.33;;;0.83;;
3121;SDS011;1571;52.524;14.104;2022-10-16T10:03:56;0.90;;;0.80;;
3121;SDS011;1571;52.524;14.104;2022-10-16T10:06:28;0.67;;;0.67;;
3121;SDS011;1571;52.524;14.104;2022-10-16T10:09:03;2.37;;;0.80;;
3121;SDS011;1571;52.524;14.104;2022-10-16T10:14:27;1.67;;;0.80;;
3121;SDS011;1571;52.524;14.104;2022-10-16T10:17:09;1.27;;;0.90;;
3121;SDS011;1571;52.524;14.104;2022-10-16T10:19:46;5.27;;;0.90;;
3121;SDS011;1571;52.524;14.104;2022-10-16T10:22:17;1.73;;;0.70;;
3121;SDS011;1571;52.524;14.104;2022-10-16T10:24:54;1.67;;;1.00;;
3121;SDS011;1571;52.524;14.104;2022-10-16T10:27:45;2.17;;;0.73;;
3121;SDS011;1571;52.524;14.104;2022-10-16T10:30:24;0.70;;;0.50;;
3121;SDS011;1571;52.524;14.104;2022-10-16T10:33:00;3.37;;;0.70;;
3121;SDS011;1571;52.524;14.104;2022-10-16T10:35:42;2.70;;;0.83;;
3121;SDS011;1571;52.524;14.104;2022-10-16T10:38:17;3.20;;;0.80;;
3121;SDS011;1571;52.524;14.104;2022-10-16T10:40:56;2.10;;;0.80;;
3121;SDS011;1571;52.524;14.104;2022-10-16T10:43:39;1.70;;;0.77;;
3121;SDS011;1571;52.524;14.104;2022-10-16T10:46:19;2.23;;;0.60;;
3121;SDS011;1571;52.524;14.104;2022-10-16T10:48:55;0.70;;;0.70;;
3121;SDS011;1571;52.524;14.104;2022-10-16T10:51:39;0.80;;;0.70;;
3121;SDS011;1571;52.524;14.104;2022-10-16T10:54:22;1.00;;;0.60;;
3121;SDS011;1571;52.524;14.104;2022-10-16T10:56:57;2.90;;;0.70;;
3121;SDS011;1571;52.524;14.104;2022-10-16T10:59:32;1.43;;;0.70;;
3121;SDS011;1571;52.524;14.104;2022-10-16T11:02:13;0.70;;;0.70;;
3121;SDS011;1571;52.524;14.104;2022-10-16T11:04:55;0.70;;;0.53;;
3121;SDS011;1571;52.524;14.104;2022-10-16T11:07:33;1.90;;;0.73;;
3121;SDS011;1571;52.524;14.104;2022-10-16T11:10:08;4.40;;;0.70;;
3121;SDS011;1571;52.524;14.104;2022-10-16T11:12:44;0.70;;;0.70;;
3121;SDS011;1571;52.524;14.104;2022-10-16T11:15:18;7.23;;;0.80;;
3121;SDS011;1571;52.524;14.104;2022-10-16T11:17:50;0.60;;;0.60;;
3121;SDS011;1571;52.524;14.104;2022-10-16T11:20:22;0.60;;;0.60;;
3121;SDS011;1571;52.524;14.104;2022-10-16T11:22:53;2.47;;;0.70;;
3121;SDS011;1571;52.524;14.104;2022-10-16T11:25:26;1.47;;;0.70;;
3121;SDS011;1571;52.524;14.104;2022-10-16T11:27:57;1.57;;;0.80;;
3121;SDS011;1571;52.524;14.104;2022-10-16T11:30:34;0.80;;;0.60;;
3121;SDS011;1571;52.524;14.104;2022-10-16T11:33:18;1.33;;;0.67;;
3121;SDS011;1571;52.524;14.104;2022-10-16T11:35:53;1.43;;;0.60;;
3121;SDS011;1571;52.524;14.104;2022-10-16T11:38:28;1.97;;;0.70;;
3121;SDS011;1571;52.524;14.104;2022-10-16T11:41:00;1.33;;;0.50;;
3121;SDS011;1571;52.524;14.104;2022-10-16T11:43:37;2.63;;;0.60;;
3121;SDS011;1571;52.524;14.104;2022-10-16T11:46:10;3.60;;;0.80;;
3121;SDS011;1571;52.524;14.104;2022-10-16T11:48:45;0.60;;;0.60;;
3121;SDS011;1571;52.524;14.104;2022-10-16T11:51:19;1.03;;;0.60;;
3121;SDS011;1571;52.524;14.104;2022-10-16T11:53:53;3.03;;;0.60;;
3121;SDS011;1571;52.524;14.104;2022-10-16T11:56:28;1.27;;;0.50;;
3121;SDS011;1571;52.524;14.104;2022-10-16T11:59:00;2.70;;;0.60;;
3121;SDS011;1571;52.524;14.104;2022-10-16T12:01:33;2.20;;;0.70;;
3121;SDS011;1571;52.524;14.104;2022-10-16T12:04:14;0.80;;;0.60;;
3121;SDS011;1571;52.524;14.104;2022-10-16T12:06:51;1.30;;;0.60;;
3121;SDS011;1571;52.524;14.104;2022-10-16T12:09:27;1.00;;;0.60;;
3121;SDS011;1571;52.524;14.104;2022-10-16T12:11:57;2.10;;;1.27;;
3121;SDS011;1571;52.524;14.104;2022-10-16T12:14:33;2.57;;;0.70;;
3121;SDS011;1571;52.524;14.104;2022-10-16T12:17:27;0.60;;;0.50;;
3121;SDS011;1571;52.524;14.104;2022-10-16T12:20:18;1.23;;;0.50;;
3121;SDS011;1571;52.524;14.104;2022-10-16T12:22:53;1.23;;;0.50;;
3121;SDS011;1571;52.524;14.104;2022-10-16T12:25:25;0.50;;;0.50;;
3121;SDS011;1571;52.524;14.104;2022-10-16T12:27:56;0.90;;;0.60;;
3121;SDS011;1571;52.524;14.104;2022-10-16T12:30:27;1.27;;;0.60;;
3121;SDS011;1571;52.524;14.104;2022-10-16T12:33:03;4.10;;;0.60;;
3121;SDS011;1571;52.524;14.104;2022-10-16T12:35:34;0.60;;;0.60;;
3121;SDS011;1571;52.524;14.104;2022-10-16T12:38:14;4.50;;;0.60;;
3121;SDS011;1571;52.524;14.104;2022-10-16T12:40:47;0.97;;;0.70;;
3121;SDS011;1571;52.524;14.104;2022-10-16T12:43:26;0.70;;;0.70;;
3121;SDS011;1571;52.524;14.104;2022-10-16T12:46:04;0.70;;;0.70;;
3121;SDS011;1571;52.524;14.104;2022-10-16T12:48:49;0.50;;;0.50;;
3121;SDS011;1571;52.524;14.104;2022-10-16T12:51:36;1.27;;;0.77;;
3121;SDS011;1571;52.524;14.104;2022-10-16T12:54:10;1.43;;;0.90;;
3121;SDS011;1571;52.524;14.104;2022-10-16T12:56:41;0.80;;;0.67;;
3121;SDS011;1571;52.524;14.104;2022-10-16T12:59:21;0.53;;;0.53;;
3121;SDS011;1571;52.524;14.104;2022-10-16T13:02:17;6.43;;;0.77;;
3121;SDS011;1571;52.524;14.104;2022-10-16T13:05:12;0.70;;;0.50;;
3121;SDS011;1571;52.524;14.104;2022-10-16T13:07:52;1.27;;;0.67;;
3121;SDS011;1571;52.524;14.104;2022-10-16T13:10:31;0.50;;;0.50;;
3121;SDS011;1571;52.524;14.104;2022-10-16T13:13:10;1.13;;;0.40;;
3121;SDS011;1571;52.524;14.104;2022-10-16T13:15:52;3.90;;;0.50;;
3121;SDS011;1571;52.524;14.104;2022-10-16T13:18:34;0.57;;;0.40;;
3121;SDS011;1571;52.524;14.104;2022-10-16T13:21:20;0.97;;;0.97;;
3121;SDS011;1571;52.524;14.104;2022-10-16T13:24:00;0.77;;;0.40;;
3121;SDS011;1571;52.524;14.104;2022-10-16T13:26:35;0.80;;;0.40;;
3121;SDS011;1571;52.524;14.104;2022-10-16T13:29:11;0.73;;;0.60;;
3121;SDS011;1571;52.524;14.104;2022-10-16T13:31:41;2.30;;;0.50;;
3121;SDS011;1571;52.524;14.104;2022-10-16T13:34:12;1.07;;;0.50;;
3121;SDS011;1571;52.524;14.104;2022-10-16T13:36:46;0.80;;;0.40;;
3121;SDS011;1571;52.524;14.104;2022-10-16T13:39:20;1.17;;;0.50;;
3121;SDS011;1571;52.524;14.104;2022-10-16T13:42:03;0.93;;;0.60;;
3121;SDS011;1571;52.524;14.104;2022-10-16T13:44:36;0.50;;;0.40;;
3121;SDS011;1571;52.524;14.104;2022-10-16T13:47:15;0.40;;;0.40;;
3121;SDS011;1571;52.524;14.104;2022-10-16T13:49:45;0.77;;;0.50;;
3121;SDS011;1571;52.524;14.104;2022-10-16T13:52:19;0.77;;;0.50;;
3121;SDS011;1571;52.524;14.104;2022-10-16T13:54:48;0.57;;;0.57;;
3121;SDS011;1571;52.524;14.104;2022-10-16T13:57:16;0.57;;;0.50;;
3121;SDS011;1571;52.524;14.104;2022-10-16T13:59:53;1.13;;;0.40;;
3121;SDS011;1571;52.524;14.104;2022-10-16T14:02:22;1.37;;;0.60;;
3121;SDS011;1571;52.524;14.104;2022-10-16T14:04:54;0.50;;;0.40;;
3121;SDS011;1571;52.524;14.104;2022-10-16T14:07:26;0.50;;;0.50;;
3121;SDS011;1571;52.524;14.104;2022-10-16T14:09:56;0.50;;;0.50;;
3121;SDS011;1571;52.524;14.104;2022-10-16T14:12:29;2.53;;;0.50;;
3121;SDS011;1571;52.524;14.104;2022-10-16T14:14:58;0.60;;;0.50;;
3121;SDS011;1571;52.524;14.104;2022-10-16T14:17:29;0.40;;;0.40;;
3121;SDS011;1571;52.524;14.104;2022-10-16T14:20:02;0.70;;;0.40;;
3121;SDS011;1571;52.524;14.104;2022-10-16T14:22:35;2.03;;;1.70;;
3121;SDS011;1571;52.524;14.104;2022-10-16T14:25:16;0.83;;;0.60;;
3121;SDS011;1571;52.524;14.104;2022-10-16T14:28:00;1.90;;;0.50;;
3121;SDS011;1571;52.524;14.104;2022-10-16T14:30:31;1.17;;;0.50;;
3121;SDS011;1571;52.524;14.104;2022-10-16T14:33:01;1.33;;;0.50;;
3121;SDS011;1571;52.524;14.104;2022-10-16T14:35:31;2.50;;;0.50;;
3121;SDS011;1571;52.524;14.104;2022-10-16T14:38:02;0.60;;;0.50;;
3121;SDS011;1571;52.524;14.104;2022-10-16T14:40:33;0.70;;;0.40;;
3121;SDS011;1571;52.524;14.104;2022-10-16T14:43:03;0.40;;;0.40;;
3121;SDS011;1571;52.524;14.104;2022-10-16T14:45:33;1.47;;;0.57;;
3121;SDS011;1571;52.524;14.104;2022-10-16T14:48:04;0.50;;;0.50;;
3121;SDS011;1571;52.524;14.104;2022-10-16T14:50:45;1.53;;;1.33;;
3121;SDS011;1571;52.524;14.104;2022-10-16T14:53:15;1.40;;;0.50;;
3121;SDS011;1571;52.524;14.104;2022-10-16T14:55:43;1.20;;;0.50;;
3121;SDS011;1571;52.524;14.104;2022-10-16T14:58:13;2.87;;;0.50;;
3121;SDS011;1571;52.524;14.104;2022-10-16T15:00:44;0.50;;;0.40;;
3121;SDS011;1571;52.524;14.104;2022-10-16T15:03:12;0.40;;;0.40;;
3121;SDS011;1571;52.524;14.104;2022-10-16T15:05:41;2.07;;;1.10;;
3121;SDS011;1571;52.524;14.104;2022-10-16T15:08:09;4.30;;;1.67;;
3121;SDS011;1571;52.524;14.104;2022-10-16T15:10:40;1.23;;;0.70;;
3121;SDS011;1571;52.524;14.104;2022-10-16T15:13:13;4.10;;;0.90;;
3121;SDS011;1571;52.524;14.104;2022-10-16T15:15:42;1.47;;;0.97;;
3121;SDS011;1571;52.524;14.104;2022-10-16T15:18:11;2.13;;;0.70;;
3121;SDS011;1571;52.524;14.104;2022-10-16T15:20:41;2.20;;;0.70;;
3121;SDS011;1571;52.524;14.104;2022-10-16T15:23:12;1.53;;;0.60;;
3121;SDS011;1571;52.524;14.104;2022-10-16T15:25:44;3.83;;;1.10;;
3121;SDS011;1571;52.524;14.104;2022-10-16T15:28:14;0.60;;;0.57;;
3121;SDS011;1571;52.524;14.104;2022-10-16T15:30:43;3.23;;;0.90;;
3121;SDS011;1571;52.524;14.104;2022-10-16T15:33:13;0.60;;;0.60;;